createdAt,value
2022-10-23T00:00:42.215Z,7.90
2022-10-23T00:03:08.055Z,9.43
2022-10-23T00:05:33.960Z,6.72
2022-10-23T00:07:59.995Z,7.68
2022-10-23T00:10:27.149Z,8.50
2022-10-23T00:12:53.831Z,8.15
2022-10-23T00:15:21.927Z,11.32
2022-10-23T00:17:48.000Z,11.93
2022-10-23T00:20:15.787Z,7.68
2022-10-23T00:22:41.526Z,9.38
2022-10-23T00:25:08.328Z,8.85
2022-10-23T00:27:34.747Z,7.65
2022-10-23T00:30:01.706Z,7.65
2022-10-23T00:32:27.865Z,7.30
2022-10-23T00:34:53.939Z,8.27
2022-10-23T00:37:20.056Z,8.40
2022-10-23T00:39:45.742Z,8.27
2022-10-23T00:42:20.217Z,6.90
2022-10-23T00:44:45.784Z,7.47
2022-10-23T00:47:13.234Z,6.68
2022-10-23T00:52:11.480Z,7.00
2022-10-23T00:54:39.924Z,9.40
2022-10-23T00:57:09.107Z,11.25
2022-10-23T00:59:35.042Z,9.27
2022-10-23T01:02:01.271Z,9.07
2022-10-23T01:04:28.079Z,8.40
2022-10-23T01:07:09.867Z,9.18
2022-10-23T01:10:02.524Z,9.45
2022-10-23T01:12:44.007Z,7.28
2022-10-23T01:15:19.363Z,8.00
2022-10-23T01:18:14.435Z,9.60
2022-10-23T01:20:44.868Z,7.47
2022-10-23T01:23:32.276Z,9.18
2022-10-23T01:26:15.831Z,8.45
2022-10-23T01:29:06.121Z,8.25
2022-10-23T01:31:36.729Z,7.05
2022-10-23T01:34:16.103Z,10.32
2022-10-23T01:36:46.864Z,7.07
2022-10-23T01:39:22.058Z,8.85
2022-10-23T01:42:04.417Z,9.10
2022-10-23T01:44:42.769Z,7.88
2022-10-23T01:47:11.135Z,8.80
2022-10-23T01:49:39.653Z,8.00
2022-10-23T01:52:09.089Z,7.53
2022-10-23T01:54:39.854Z,9.13
2022-10-23T01:57:09.746Z,10.18
2022-10-23T01:59:43.685Z,8.70
2022-10-23T02:02:11.385Z,9.90
2022-10-23T02:04:41.404Z,8.57
2022-10-23T02:07:07.634Z,7.78
2022-10-23T02:09:33.966Z,7.95
2022-10-23T02:12:07.657Z,6.85
2022-10-23T02:14:37.306Z,7.93
2022-10-23T02:17:15.812Z,8.18
2022-10-23T02:20:20.360Z,8.88
2022-10-23T02:22:59.684Z,7.38
2022-10-23T02:25:43.881Z,5.90
2022-10-23T02:28:14.726Z,6.88
2022-10-23T02:30:44.390Z,7.80
2022-10-23T02:33:12.618Z,8.90
2022-10-23T02:35:38.423Z,7.22
2022-10-23T02:38:34.940Z,7.70
2022-10-23T02:41:14.914Z,9.60
2022-10-23T02:43:52.154Z,6.75
2022-10-23T02:46:20.476Z,9.20
2022-10-23T02:49:18.223Z,7.72
2022-10-23T02:52:01.301Z,8.30
2022-10-23T02:54:54.524Z,7.78
2022-10-23T02:57:36.976Z,7.90
2022-10-23T03:00:13.150Z,7.85
2022-10-23T03:02:56.036Z,6.85
2022-10-23T03:05:25.838Z,8.45
2022-10-23T03:07:51.761Z,8.15
2022-10-23T03:10:17.523Z,8.75
2022-10-23T03:12:43.698Z,7.65
2022-10-23T03:15:11.608Z,8.32
2022-10-23T03:17:37.458Z,7.57
2022-10-23T03:20:04.735Z,9.85
2022-10-23T03:22:33.310Z,9.48
2022-10-23T03:24:59.058Z,7.20
2022-10-23T03:27:24.850Z,8.18
2022-10-23T03:29:50.624Z,8.88
2022-10-23T03:32:16.412Z,9.15
2022-10-23T03:34:42.303Z,9.15
2022-10-23T03:37:08.072Z,10.57
2022-10-23T03:39:33.841Z,7.97
2022-10-23T03:41:59.703Z,8.32
2022-10-23T03:44:25.694Z,8.52
2022-10-23T03:46:51.441Z,9.55
2022-10-23T03:49:17.147Z,8.43
2022-10-23T03:51:44.055Z,10.60
2022-10-23T03:54:10.493Z,7.97
2022-10-23T03:56:36.155Z,10.32
2022-10-23T03:59:01.825Z,7.57
2022-10-23T04:01:27.649Z,9.27
2022-10-23T04:03:53.421Z,7.50
2022-10-23T04:06:19.179Z,7.97
2022-10-23T04:08:45.091Z,9.85
2022-10-23T04:11:11.011Z,9.80
2022-10-23T04:13:37.015Z,7.60
2022-10-23T04:16:03.076Z,8.18
2022-10-23T04:18:28.825Z,9.30
2022-10-23T04:20:54.465Z,7.28
2022-10-23T04:23:20.185Z,6.68
2022-10-23T04:28:17.043Z,6.97
2022-10-23T04:30:42.719Z,7.78
2022-10-23T04:33:08.503Z,6.40
2022-10-23T04:35:34.161Z,6.50
2022-10-23T04:37:59.909Z,8.20
2022-10-23T04:40:25.589Z,7.28
2022-10-23T04:42:51.243Z,6.70
2022-10-23T04:45:16.991Z,8.32
2022-10-23T04:47:42.651Z,5.75
2022-10-23T04:50:08.380Z,6.35
2022-10-23T04:52:34.060Z,6.88
2022-10-23T04:54:59.718Z,7.75
2022-10-23T04:57:25.539Z,9.52
2022-10-23T04:59:51.292Z,9.30
2022-10-23T05:02:17.246Z,6.53
2022-10-23T05:04:42.890Z,8.25
2022-10-23T05:07:08.672Z,8.02
2022-10-23T05:09:34.646Z,7.20
2022-10-23T05:12:00.329Z,6.47
2022-10-23T05:14:25.994Z,11.43
2022-10-23T05:16:58.069Z,6.13
2022-10-23T05:19:28.920Z,6.00
2022-10-23T05:21:56.048Z,6.53
2022-10-23T05:24:22.983Z,6.00
2022-10-23T05:26:50.971Z,6.75
2022-10-23T05:29:17.265Z,6.65
2022-10-23T05:31:43.276Z,8.13
2022-10-23T05:34:13.308Z,6.32
2022-10-23T05:36:39.284Z,7.40
2022-10-23T05:39:05.092Z,8.63
2022-10-23T05:41:30.901Z,10.80
2022-10-23T05:43:56.567Z,8.38
2022-10-23T05:46:27.181Z,6.63
2022-10-23T05:48:52.951Z,9.02
2022-10-23T05:51:21.577Z,9.50
2022-10-23T05:53:48.460Z,7.90
2022-10-23T05:56:14.412Z,8.20
2022-10-23T05:58:40.083Z,9.23
2022-10-23T06:01:08.406Z,8.85
2022-10-23T06:03:34.709Z,7.07
2022-10-23T06:06:00.634Z,7.70
2022-10-23T06:08:26.379Z,9.68
2022-10-23T06:10:52.067Z,8.98
2022-10-23T06:13:18.130Z,10.57
2022-10-23T06:15:43.803Z,12.27
2022-10-23T06:18:09.624Z,10.85
2022-10-23T06:20:36.873Z,12.45
2022-10-23T06:23:03.816Z,9.70
2022-10-23T06:25:29.482Z,11.38
2022-10-23T06:27:55.177Z,10.82
2022-10-23T06:30:20.864Z,8.95
2022-10-23T06:32:46.563Z,9.07
2022-10-23T06:35:12.596Z,9.20
2022-10-23T06:37:38.250Z,12.13
2022-10-23T06:40:05.357Z,9.10
2022-10-23T06:42:31.131Z,7.40
2022-10-23T06:44:56.970Z,8.65
2022-10-23T06:47:22.734Z,6.85
2022-10-23T06:49:48.429Z,7.90
2022-10-23T06:52:23.228Z,7.25
2022-10-23T06:57:25.471Z,6.97
2022-10-23T06:59:51.425Z,6.43
2022-10-23T07:02:17.122Z,6.93
2022-10-23T07:04:42.829Z,7.50
2022-10-23T07:07:08.521Z,6.43
2022-10-23T07:09:35.563Z,6.60
2022-10-23T07:12:01.200Z,6.13
2022-10-23T07:14:26.888Z,6.75
2022-10-23T07:16:52.629Z,5.85
2022-10-23T07:19:18.394Z,4.82
2022-10-23T07:21:44.074Z,6.00
2022-10-23T07:24:10.014Z,6.43
2022-10-23T07:26:35.798Z,5.38
2022-10-23T07:29:01.475Z,5.85
2022-10-23T07:31:28.253Z,5.15
2022-10-23T07:33:54.712Z,5.90
2022-10-23T07:36:20.473Z,5.13
2022-10-23T07:38:46.178Z,4.60
2022-10-23T07:41:12.545Z,4.07
2022-10-23T07:43:38.750Z,5.90
2022-10-23T07:46:04.755Z,4.50
2022-10-23T07:48:30.472Z,4.07
2022-10-23T07:51:00.961Z,3.75
2022-10-23T07:53:26.806Z,3.92
2022-10-23T07:56:04.051Z,3.25
2022-10-23T07:58:30.544Z,3.90
2022-10-23T08:01:01.703Z,3.75
2022-10-23T08:03:32.675Z,3.05
2022-10-23T08:05:59.401Z,4.10
2022-10-23T08:08:25.551Z,4.30
2022-10-23T08:10:53.038Z,5.45
2022-10-23T08:13:19.939Z,3.35
2022-10-23T08:15:47.469Z,6.88
2022-10-23T08:18:13.362Z,3.38
2022-10-23T08:20:43.385Z,3.47
2022-10-23T08:23:11.957Z,2.47
2022-10-23T08:25:39.470Z,3.13
2022-10-23T08:28:06.388Z,2.20
2022-10-23T08:30:32.768Z,2.90
2022-10-23T08:32:58.429Z,4.18
2022-10-23T08:35:24.119Z,2.45
2022-10-23T08:37:49.857Z,3.88
2022-10-23T08:40:22.531Z,6.03
2022-10-23T08:42:58.727Z,5.53
2022-10-23T08:45:34.618Z,4.50
2022-10-23T08:48:19.572Z,4.03
2022-10-23T08:50:50.564Z,2.88
2022-10-23T08:53:16.171Z,4.20
2022-10-23T08:55:46.587Z,2.13
2022-10-23T08:58:19.438Z,2.58
2022-10-23T09:00:47.006Z,3.65
2022-10-23T09:03:13.222Z,2.35
2022-10-23T09:05:53.974Z,1.55
2022-10-23T09:08:56.560Z,2.30
2022-10-23T09:11:35.740Z,2.63
2022-10-23T09:14:43.098Z,2.92
2022-10-23T09:17:20.582Z,2.28
2022-10-23T09:19:47.096Z,1.90
2022-10-23T09:22:13.127Z,1.80
2022-10-23T09:24:41.933Z,1.38
2022-10-23T09:27:15.324Z,1.67
2022-10-23T09:32:12.037Z,1.73
2022-10-23T09:34:50.440Z,2.60
2022-10-23T09:37:27.728Z,4.93
2022-10-23T09:40:15.014Z,3.17
2022-10-23T09:42:51.458Z,1.40
2022-10-23T09:45:25.864Z,1.40
2022-10-23T09:48:05.274Z,1.55
2022-10-23T09:52:57.799Z,4.95
2022-10-23T09:55:25.240Z,1.15
2022-10-23T09:57:53.213Z,1.38
2022-10-23T10:00:23.299Z,2.28
2022-10-23T10:03:03.269Z,1.92
2022-10-23T10:05:30.357Z,1.10
2022-10-23T10:08:03.148Z,1.25
2022-10-23T10:10:35.821Z,1.83
2022-10-23T10:13:15.205Z,4.15
2022-10-23T10:18:31.992Z,2.47
2022-10-23T10:21:19.709Z,1.73
2022-10-23T10:24:19.167Z,2.83
2022-10-23T10:27:02.455Z,2.58
2022-10-23T10:29:46.694Z,2.83
2022-10-23T10:32:35.186Z,2.03
2022-10-23T10:35:21.529Z,1.90
2022-10-23T10:38:15.580Z,1.50
2022-10-23T10:40:50.588Z,1.17
2022-10-23T10:43:38.440Z,2.40
2022-10-23T10:48:56.264Z,2.22
2022-10-23T10:51:28.084Z,1.95
2022-10-23T10:54:11.140Z,2.33
2022-10-23T10:56:39.898Z,2.67
2022-10-23T10:59:15.390Z,1.55
2022-10-23T11:01:48.862Z,2.05
2022-10-23T11:04:31.100Z,1.30
2022-10-23T11:06:59.316Z,1.33
2022-10-23T11:09:28.144Z,4.20
2022-10-23T11:11:54.331Z,1.20
2022-10-23T11:14:25.706Z,1.33
2022-10-23T11:16:58.805Z,0.95
2022-10-23T11:19:39.254Z,1.58
2022-10-23T11:22:10.849Z,1.85
2022-10-23T11:24:58.495Z,1.73
2022-10-23T11:28:04.435Z,1.60
2022-10-23T11:30:53.428Z,1.92
2022-10-23T11:33:34.905Z,4.55
2022-10-23T11:36:48.137Z,2.63
2022-10-23T11:39:32.015Z,1.08
2022-10-23T11:42:19.922Z,1.38
2022-10-23T11:44:47.252Z,1.23
2022-10-23T11:47:36.433Z,1.83
2022-10-23T11:50:07.590Z,1.20
2022-10-23T11:53:12.583Z,1.42
2022-10-23T11:55:38.463Z,2.83
2022-10-23T11:58:04.077Z,1.92
2022-10-23T12:00:31.923Z,0.98
2022-10-23T12:02:59.355Z,1.38
2022-10-23T12:05:35.761Z,1.98
2022-10-23T12:08:04.589Z,8.25
2022-10-23T12:10:34.034Z,1.98
2022-10-23T12:13:05.192Z,1.75
2022-10-23T12:15:34.118Z,1.52
2022-10-23T12:18:16.222Z,1.92
2022-10-23T12:20:49.384Z,1.40
2022-10-23T12:26:02.144Z,1.75
2022-10-23T12:28:56.261Z,1.80
2022-10-23T12:31:52.385Z,1.58
2022-10-23T12:34:25.635Z,1.77
2022-10-23T12:37:22.213Z,2.13
2022-10-23T12:39:54.026Z,1.80
2022-10-23T12:42:25.525Z,3.25
2022-10-23T12:45:01.438Z,1.90
2022-10-23T12:47:29.118Z,1.38
2022-10-23T12:49:55.076Z,1.90
2022-10-23T12:52:23.718Z,1.30
2022-10-23T12:54:50.079Z,1.55
2022-10-23T12:57:28.141Z,1.23
2022-10-23T13:00:01.594Z,1.83
2022-10-23T13:02:29.721Z,1.35
2022-10-23T13:05:00.174Z,2.25
2022-10-23T13:07:29.093Z,1.30
2022-10-23T13:09:55.283Z,1.40
2022-10-23T13:12:29.987Z,1.60
2022-10-23T13:15:02.697Z,1.23
2022-10-23T13:17:35.907Z,1.27
2022-10-23T13:20:31.543Z,2.78
2022-10-23T13:23:09.348Z,2.72
2022-10-23T13:25:37.521Z,1.52
2022-10-23T13:28:21.127Z,1.52
2022-10-23T13:31:17.043Z,1.25
2022-10-23T13:33:44.174Z,1.48
2022-10-23T13:36:12.635Z,2.75
2022-10-23T13:39:09.385Z,1.42
2022-10-23T13:41:39.956Z,2.42
2022-10-23T13:44:06.152Z,2.53
2022-10-23T13:46:32.112Z,1.90
2022-10-23T13:48:57.794Z,1.77
2022-10-23T13:51:27.657Z,2.03
2022-10-23T13:53:54.699Z,3.22
2022-10-23T13:58:48.023Z,2.25
2022-10-23T14:01:29.721Z,2.38
2022-10-23T14:03:57.821Z,1.80
2022-10-23T14:06:23.611Z,2.50
2022-10-23T14:08:49.540Z,1.98
2022-10-23T14:11:17.272Z,5.25
2022-10-23T14:13:43.578Z,3.35
2022-10-23T14:16:11.992Z,3.15
2022-10-23T14:18:38.018Z,2.50
2022-10-23T14:21:06.769Z,4.47
2022-10-23T14:23:32.423Z,2.83
2022-10-23T14:26:02.335Z,5.22
2022-10-23T14:28:31.486Z,2.22
2022-10-23T14:30:57.160Z,3.40
2022-10-23T14:33:23.008Z,3.38
2022-10-23T14:35:49.876Z,2.30
2022-10-23T14:38:15.776Z,3.25
2022-10-23T14:40:41.584Z,4.68
2022-10-23T14:43:07.269Z,2.70
2022-10-23T14:45:32.956Z,3.75
2022-10-23T14:48:00.382Z,2.78
2022-10-23T14:50:26.501Z,2.72
2022-10-23T14:52:52.222Z,3.50
2022-10-23T14:55:18.247Z,3.75
2022-10-23T14:57:44.154Z,5.07
2022-10-23T15:00:10.866Z,3.85
2022-10-23T15:02:36.815Z,3.88
2022-10-23T15:05:04.661Z,3.40
2022-10-23T15:07:30.322Z,3.40
2022-10-23T15:09:56.353Z,2.63
2022-10-23T15:12:22.521Z,4.00
2022-10-23T15:14:48.202Z,3.45
2022-10-23T15:17:15.663Z,4.85
2022-10-23T15:19:41.685Z,5.60
2022-10-23T15:22:07.364Z,5.82
2022-10-23T15:24:33.093Z,6.38
2022-10-23T15:26:59.691Z,4.78
2022-10-23T15:29:25.542Z,4.63
2022-10-23T15:31:57.099Z,2.75
2022-10-23T15:34:25.335Z,3.28
2022-10-23T15:36:52.188Z,3.92
2022-10-23T15:39:21.558Z,3.17
2022-10-23T15:41:50.277Z,2.70
2022-10-23T15:44:18.704Z,2.50
2022-10-23T15:46:44.725Z,2.60
2022-10-23T15:49:11.359Z,2.60
2022-10-23T15:51:38.681Z,4.72
2022-10-23T15:54:05.631Z,2.55
2022-10-23T15:56:31.374Z,2.83
2022-10-23T15:58:57.197Z,4.03
2022-10-23T16:01:22.918Z,4.47
2022-10-23T16:03:49.432Z,3.30
2022-10-23T16:06:16.586Z,2.83
2022-10-23T16:08:45.608Z,8.10
2022-10-23T16:11:18.295Z,5.57
2022-10-23T16:13:44.851Z,3.72
2022-10-23T16:16:11.482Z,4.82
2022-10-23T16:18:37.532Z,6.25
2022-10-23T16:21:03.358Z,8.02
2022-10-23T16:23:29.335Z,10.45
2022-10-23T16:25:55.244Z,10.88
2022-10-23T16:28:21.178Z,9.27
2022-10-23T16:30:46.952Z,11.98
2022-10-23T16:33:12.630Z,15.85
2022-10-23T16:35:38.656Z,12.75
2022-10-23T16:38:04.929Z,6.72
2022-10-23T16:40:30.702Z,7.25
2022-10-23T16:42:57.277Z,7.88
2022-10-23T16:45:23.293Z,8.77
2022-10-23T16:47:49.118Z,7.68
2022-10-23T16:50:15.556Z,4.97
2022-10-23T16:52:41.667Z,5.60
2022-10-23T16:55:08.659Z,5.18
2022-10-23T16:57:35.566Z,13.18
2022-10-23T17:00:01.232Z,7.70
2022-10-23T17:02:27.902Z,5.90
2022-10-23T17:04:53.676Z,5.55
2022-10-23T17:07:19.452Z,9.70
2022-10-23T17:09:48.249Z,8.98
2022-10-23T17:12:14.834Z,14.43
2022-10-23T17:14:40.968Z,13.82
2022-10-23T17:17:08.919Z,32.92
2022-10-23T17:19:51.066Z,26.10
2022-10-23T17:22:16.760Z,16.05
2022-10-23T17:24:47.529Z,10.07
2022-10-23T17:27:16.137Z,6.78
2022-10-23T17:29:41.839Z,6.75
2022-10-23T17:32:07.635Z,4.70
2022-10-23T17:34:33.524Z,4.82
2022-10-23T17:36:59.224Z,7.57
2022-10-23T17:39:27.329Z,6.53
2022-10-23T17:41:54.072Z,6.88
2022-10-23T17:44:20.447Z,5.68
2022-10-23T17:46:52.404Z,7.78
2022-10-23T17:49:18.588Z,6.07
2022-10-23T17:51:44.285Z,6.80
2022-10-23T17:54:11.220Z,6.72
2022-10-23T17:56:37.674Z,8.65
2022-10-23T17:59:10.830Z,7.70
2022-10-23T18:01:37.705Z,8.30
2022-10-23T18:04:06.239Z,7.40
2022-10-23T18:06:35.473Z,6.13
2022-10-23T18:09:03.504Z,6.00
2022-10-23T18:11:36.113Z,7.25
2022-10-23T18:14:03.190Z,7.00
2022-10-23T18:16:29.023Z,6.35
2022-10-23T18:18:55.803Z,4.80
2022-10-23T18:21:23.562Z,6.40
2022-10-23T18:23:49.713Z,6.00
2022-10-23T18:26:18.239Z,8.40
2022-10-23T18:28:45.882Z,6.15
2022-10-23T18:31:12.372Z,5.85
2022-10-23T18:33:38.443Z,7.32
2022-10-23T18:36:12.648Z,9.25
2022-10-23T18:38:38.358Z,7.07
2022-10-23T18:41:04.104Z,9.27
2022-10-23T18:43:43.369Z,7.10
2022-10-23T18:46:14.103Z,5.20
2022-10-23T18:48:41.151Z,5.65
2022-10-23T18:51:16.025Z,7.82
2022-10-23T18:53:42.480Z,6.07
2022-10-23T18:56:08.385Z,8.43
2022-10-23T18:58:34.116Z,6.15
2022-10-23T19:01:00.001Z,6.90
2022-10-23T19:03:25.779Z,5.97
2022-10-23T19:05:51.827Z,8.32
2022-10-23T19:08:17.549Z,6.50
2022-10-23T19:10:43.919Z,5.03
2022-10-23T19:13:09.702Z,8.05
2022-10-23T19:15:36.629Z,7.97
2022-10-23T19:18:06.376Z,7.93
2022-10-23T19:20:33.034Z,8.20
2022-10-23T19:23:00.736Z,6.97
2022-10-23T19:25:30.526Z,7.00
2022-10-23T19:27:57.779Z,7.53
2022-10-23T19:32:50.287Z,6.25
2022-10-23T19:35:18.908Z,6.22
2022-10-23T19:37:45.160Z,5.63
2022-10-23T19:40:12.090Z,9.25
2022-10-23T19:42:39.858Z,7.35
2022-10-23T19:45:07.530Z,6.88
2022-10-23T19:47:34.159Z,7.85
2022-10-23T19:49:59.853Z,7.60
2022-10-23T19:52:25.753Z,8.55
2022-10-23T19:54:51.439Z,6.60
2022-10-23T19:57:19.327Z,7.30
2022-10-23T19:59:51.536Z,9.00
2022-10-23T20:02:18.811Z,9.20
2022-10-23T20:04:44.900Z,6.65
2022-10-23T20:07:10.615Z,7.88
2022-10-23T20:09:36.870Z,6.47
2022-10-23T20:12:03.203Z,6.43
2022-10-23T20:14:29.047Z,6.20
2022-10-23T20:16:56.067Z,7.47
2022-10-23T20:21:48.795Z,7.72
2022-10-23T20:24:16.803Z,6.40
2022-10-23T20:26:44.804Z,7.07
2022-10-23T20:29:10.904Z,7.20
2022-10-23T20:31:38.638Z,6.30
2022-10-23T20:34:07.429Z,7.00
2022-10-23T20:36:40.177Z,7.38
2022-10-23T20:39:11.857Z,5.75
2022-10-23T20:41:39.070Z,7.05
2022-10-23T20:44:07.437Z,9.13
2022-10-23T20:46:34.118Z,8.30
2022-10-23T20:48:59.944Z,8.25
2022-10-23T20:51:26.109Z,6.53
2022-10-23T20:53:53.850Z,7.57
2022-10-23T20:56:31.596Z,8.13
2022-10-23T20:59:04.686Z,7.43
2022-10-23T21:01:31.617Z,6.43
2022-10-23T21:03:59.272Z,6.72
2022-10-23T21:06:33.991Z,5.85
2022-10-23T21:09:06.856Z,5.93
2022-10-23T21:11:34.469Z,5.43
2022-10-23T21:14:00.426Z,5.25
2022-10-23T21:16:32.377Z,5.00
2022-10-23T21:18:59.134Z,5.78
2022-10-23T21:21:25.937Z,5.63
2022-10-23T21:23:54.043Z,6.80
2022-10-23T21:26:22.164Z,5.78
2022-10-23T21:28:56.059Z,5.90
2022-10-23T21:31:32.931Z,6.15
2022-10-23T21:33:58.617Z,5.88
2022-10-23T21:36:24.533Z,7.57
2022-10-23T21:38:55.744Z,6.15
2022-10-23T21:41:24.601Z,5.75
2022-10-23T21:43:55.056Z,6.32
2022-10-23T21:46:21.724Z,6.70
2022-10-23T21:48:47.925Z,5.05
2022-10-23T21:51:36.296Z,5.57
2022-10-23T21:54:03.596Z,6.00
2022-10-23T21:58:55.873Z,7.65
2022-10-23T22:01:21.696Z,6.68
2022-10-23T22:03:47.904Z,6.00
2022-10-23T22:06:17.333Z,9.52
2022-10-23T22:08:42.997Z,5.22
2022-10-23T22:11:11.479Z,5.90
2022-10-23T22:13:37.509Z,5.28
2022-10-23T22:16:03.904Z,4.72
2022-10-23T22:18:29.627Z,4.82
2022-10-23T22:21:01.306Z,5.65
2022-10-23T22:23:27.905Z,4.38
2022-10-23T22:25:54.144Z,4.00
2022-10-23T22:28:19.831Z,5.45
2022-10-23T22:30:45.570Z,8.05
2022-10-23T22:33:11.726Z,3.78
2022-10-23T22:35:37.394Z,4.05
2022-10-23T22:38:03.172Z,5.20
2022-10-23T22:40:28.961Z,4.38
2022-10-23T22:42:54.638Z,3.28
2022-10-23T22:45:20.431Z,5.10
2022-10-23T22:47:46.167Z,8.05
2022-10-23T22:50:11.906Z,5.53
2022-10-23T22:52:37.629Z,3.42
2022-10-23T22:55:04.195Z,2.58
2022-10-23T22:57:30.128Z,5.75
2022-10-23T22:59:55.963Z,2.38
2022-10-23T23:02:21.664Z,5.20
2022-10-23T23:04:47.368Z,5.22
2022-10-23T23:07:13.150Z,3.10
2022-10-23T23:09:42.305Z,4.65
2022-10-23T23:12:10.816Z,3.60
2022-10-23T23:14:37.264Z,4.28
2022-10-23T23:17:03.340Z,4.68
2022-10-23T23:19:29.160Z,3.67
2022-10-23T23:21:56.550Z,2.83
2022-10-23T23:24:22.287Z,4.10
2022-10-23T23:26:48.008Z,4.75
2022-10-23T23:29:13.688Z,4.68
2022-10-23T23:31:39.447Z,5.75
2022-10-23T23:34:05.688Z,3.78
2022-10-23T23:36:33.176Z,3.17
2022-10-23T23:38:59.181Z,3.45
2022-10-23T23:41:26.673Z,2.45
2022-10-23T23:43:54.534Z,3.65
2022-10-23T23:46:20.400Z,2.65
2022-10-23T23:48:49.272Z,4.28
2022-10-23T23:51:19.430Z,3.83
2022-10-23T23:53:45.648Z,1.40
2022-10-23T23:56:11.516Z,4.35
2022-10-23T23:58:37.212Z,3.75
